Time;durP1;ratioP1;P1;durP2;ratioP2;P2;SDS_P1;SDS_P2;PMS_P1;PMS_P2;Temp;Humidity;BMP_temperature;BMP_pressure;BME280_temperature;BME280_humidity;BME280_pressure;Samples;Min_cycle;Max_cycle;Signal;HPM_P1;HPM_P2
2021/05/04 00:01:49;;;;;;;0.93;0.90;;;;;;;;;;5116919;28;20479;-40
2021/05/04 00:04:15;;;;;;;0.95;0.95;;;;;;;;;;5117065;28;20184;-40
2021/05/04 00:06:41;;;;;;;1.00;0.90;;;;;;;;;;5116519;28;20183;-40
2021/05/04 00:09:07;;;;;;;0.77;0.77;;;;;;;;;;5100549;28;20260;-40
2021/05/04 00:11:34;;;;;;;1.15;1.00;;;;;;;;;;5116508;28;20292;-40
2021/05/04 00:14:00;;;;;;;1.65;0.95;;;;;;;;;;5099275;28;20566;-40
2021/05/04 00:16:26;;;;;;;1.38;1.00;;;;;;;;;;5113153;28;20185;-40
2021/05/04 00:18:52;;;;;;;0.85;0.85;;;;;;;;;;5096701;28;20280;-40
2021/05/04 00:21:18;;;;;;;1.20;1.10;;;;;;;;;;5112156;28;20252;-40
2021/05/04 00:23:44;;;;;;;1.02;0.98;;;;;;;;;;5117578;28;20241;-40
2021/05/04 00:26:11;;;;;;;1.23;1.00;;;;;;;;;;5114849;28;20204;-41
2021/05/04 00:28:37;;;;;;;1.17;1.08;;;;;;;;;;5116183;28;20548;-40
2021/05/04 00:31:04;;;;;;;1.35;1.00;;;;;;;;;;5116404;28;20177;-40
2021/05/04 00:33:30;;;;;;;1.17;1.08;;;;;;;;;;5116940;28;20166;-41
2021/05/04 00:35:57;;;;;;;0.95;0.93;;;;;;;;;;5116992;28;20173;-40
2021/05/04 00:38:23;;;;;;;0.82;0.82;;;;;;;;;;5098785;28;20192;-40
2021/05/04 00:40:49;;;;;;;0.95;0.70;;;;;;;;;;5116074;28;20173;-40
2021/05/04 00:43:15;;;;;;;1.25;1.05;;;;;;;;;;5112970;28;20173;-40
2021/05/04 00:45:42;;;;;;;0.88;0.88;;;;;;;;;;5116661;28;20276;-40
2021/05/04 00:48:08;;;;;;;1.30;0.93;;;;;;;;;;5115986;28;20176;-40
2021/05/04 00:50:34;;;;;;;0.73;0.73;;;;;;;;;;5115768;28;20173;-40
2021/05/04 00:53:00;;;;;;;1.00;1.00;;;;;;;;;;5116652;28;20201;-40
2021/05/04 00:55:27;;;;;;;0.95;0.88;;;;;;;;;;5113653;28;20165;-40
2021/05/04 00:57:54;;;;;;;0.70;0.70;;;;;;;;;;5116471;28;20173;-40
2021/05/04 01:00:20;;;;;;;0.98;0.95;;;;;;;;;;5114788;28;20170;-40
2021/05/04 01:02:46;;;;;;;1.02;0.85;;;;;;;;;;5099562;28;20776;-40
2021/05/04 01:05:12;;;;;;;1.00;0.95;;;;;;;;;;5102578;28;20196;-41
2021/05/04 01:07:38;;;;;;;1.13;1.02;;;;;;;;;;5116097;28;20181;-40
2021/05/04 01:10:05;;;;;;;1.17;0.80;;;;;;;;;;5116239;28;20181;-40
2021/05/04 01:12:31;;;;;;;1.65;0.80;;;;;;;;;;5115421;28;20193;-40
2021/05/04 01:14:58;;;;;;;1.10;0.90;;;;;;;;;;5115139;28;20452;-40
2021/05/04 01:17:24;;;;;;;1.10;1.00;;;;;;;;;;5115759;28;20173;-40
2021/05/04 01:19:50;;;;;;;0.80;0.80;;;;;;;;;;5115746;28;20200;-40
2021/05/04 01:22:16;;;;;;;0.80;0.80;;;;;;;;;;5115876;28;20579;-40
2021/05/04 01:24:42;;;;;;;0.70;0.70;;;;;;;;;;5115303;28;20555;-40
2021/05/04 01:27:08;;;;;;;0.70;0.70;;;;;;;;;;5115346;28;20177;-40
2021/05/04 01:29:34;;;;;;;1.15;1.02;;;;;;;;;;5097827;28;20196;-40
2021/05/04 01:32:00;;;;;;;0.90;0.90;;;;;;;;;;5115235;28;20287;-41
2021/05/04 01:34:27;;;;;;;0.98;0.98;;;;;;;;;;5115570;28;20173;-40
2021/05/04 01:36:53;;;;;;;1.00;0.90;;;;;;;;;;5114668;28;20169;-40
2021/05/04 01:39:19;;;;;;;1.40;1.08;;;;;;;;;;5097499;28;20411;-40
2021/05/04 01:41:45;;;;;;;0.93;0.90;;;;;;;;;;5114772;28;20216;-40
2021/05/04 01:44:11;;;;;;;0.90;0.90;;;;;;;;;;5115470;28;20196;-40
2021/05/04 01:46:38;;;;;;;1.08;0.95;;;;;;;;;;5079904;28;20181;-40
2021/05/04 01:49:05;;;;;;;0.80;0.80;;;;;;;;;;5095712;28;20529;-40
2021/05/04 01:51:31;;;;;;;0.90;0.90;;;;;;;;;;5113560;28;20197;-40
2021/05/04 01:53:57;;;;;;;1.00;1.00;;;;;;;;;;5115133;28;20533;-40
2021/05/04 01:56:23;;;;;;;0.90;0.90;;;;;;;;;;5113767;28;20187;-40
2021/05/04 01:58:49;;;;;;;0.80;0.80;;;;;;;;;;5115191;28;20189;-40
2021/05/04 02:01:16;;;;;;;1.20;1.13;;;;;;;;;;5114502;28;20580;-41
2021/05/04 02:03:42;;;;;;;0.82;0.82;;;;;;;;;;5115466;28;20611;-40
2021/05/04 02:06:08;;;;;;;0.70;0.70;;;;;;;;;;5114754;28;20195;-41
2021/05/04 02:08:34;;;;;;;0.90;0.90;;;;;;;;;;5114861;28;20185;-40
2021/05/04 02:11:00;;;;;;;0.80;0.80;;;;;;;;;;5113659;28;20468;-40
2021/05/04 02:13:26;;;;;;;0.77;0.70;;;;;;;;;;5115124;28;20668;-40
2021/05/04 02:15:52;;;;;;;1.00;0.90;;;;;;;;;;5107192;28;20174;-40
2021/05/04 02:18:18;;;;;;;1.35;0.90;;;;;;;;;;5097790;28;20568;-40
2021/05/04 02:20:44;;;;;;;0.93;0.93;;;;;;;;;;5114224;28;20189;-40
2021/05/04 02:23:10;;;;;;;1.58;0.90;;;;;;;;;;5114947;28;20237;-40
2021/05/04 02:25:36;;;;;;;0.80;0.80;;;;;;;;;;5114400;28;20232;-40
2021/05/04 02:28:05;;;;;;;0.93;0.93;;;;;;;;;;5109103;28;20264;-40
2021/05/04 02:30:34;;;;;;;1.08;0.98;;;;;;;;;;5113563;28;20504;-40
2021/05/04 02:33:01;;;;;;;1.10;1.00;;;;;;;;;;5114799;28;20200;-40
2021/05/04 02:35:27;;;;;;;0.80;0.80;;;;;;;;;;5114850;28;20173;-40
2021/05/04 02:37:53;;;;;;;0.88;0.88;;;;;;;;;;5114837;28;20196;-40
2021/05/04 02:40:20;;;;;;;1.00;0.88;;;;;;;;;;5114246;28;20169;-40
2021/05/04 02:42:46;;;;;;;1.00;1.00;;;;;;;;;;5114030;28;20229;-40
2021/05/04 02:45:12;;;;;;;0.90;0.90;;;;;;;;;;5112989;28;20264;-40
2021/05/04 02:47:38;;;;;;;1.00;0.90;;;;;;;;;;5094721;28;20235;-40
2021/05/04 02:50:06;;;;;;;0.98;0.90;;;;;;;;;;5101377;28;20185;-41
2021/05/04 02:52:32;;;;;;;0.85;0.85;;;;;;;;;;5114288;28;20196;-40
2021/05/04 02:54:58;;;;;;;1.48;1.05;;;;;;;;;;5114505;28;20189;-40
2021/05/04 02:57:24;;;;;;;1.10;1.00;;;;;;;;;;5113954;28;20178;-40
2021/05/04 02:59:50;;;;;;;1.45;0.93;;;;;;;;;;5114323;28;20184;-40
2021/05/04 03:02:16;;;;;;;0.95;0.90;;;;;;;;;;5114299;28;20378;-40
2021/05/04 03:04:42;;;;;;;0.63;0.63;;;;;;;;;;5114482;28;20185;-40
2021/05/04 03:07:08;;;;;;;0.80;0.80;;;;;;;;;;5116680;28;20180;-40
2021/05/04 03:09:34;;;;;;;0.88;0.88;;;;;;;;;;5118117;28;20189;-40
2021/05/04 03:12:01;;;;;;;0.82;0.82;;;;;;;;;;5117237;28;20644;-40
2021/05/04 03:14:27;;;;;;;0.82;0.82;;;;;;;;;;5118592;28;20454;-40
2021/05/04 03:16:53;;;;;;;1.23;1.02;;;;;;;;;;5117614;28;20181;-41
2021/05/04 03:19:19;;;;;;;0.75;0.75;;;;;;;;;;5104183;28;20165;-40
2021/05/04 03:21:45;;;;;;;0.80;0.80;;;;;;;;;;5117720;28;20196;-40
2021/05/04 03:24:12;;;;;;;0.82;0.82;;;;;;;;;;5118335;28;20546;-40
2021/05/04 03:26:38;;;;;;;1.10;1.00;;;;;;;;;;5116899;28;20173;-40
2021/05/04 03:29:04;;;;;;;0.90;0.90;;;;;;;;;;5118375;28;20180;-40
2021/05/04 03:31:30;;;;;;;1.38;1.20;;;;;;;;;;5117245;28;20231;-40
2021/05/04 03:33:56;;;;;;;3.28;1.10;;;;;;;;;;5117872;28;20173;-40
2021/05/04 03:36:22;;;;;;;5.75;2.25;;;;;;;;;;5107535;28;20698;-40
2021/05/04 03:38:48;;;;;;;19.08;5.68;;;;;;;;;;5100170;28;20305;-40
2021/05/04 03:41:14;;;;;;;16.20;5.50;;;;;;;;;;5116130;28;20184;-40
2021/05/04 03:43:40;;;;;;;21.73;5.38;;;;;;;;;;5116875;28;20231;-40
2021/05/04 03:46:06;;;;;;;10.60;4.18;;;;;;;;;;5109379;28;20226;-40
2021/05/04 03:48:32;;;;;;;12.30;3.42;;;;;;;;;;5096833;28;20189;-40
2021/05/04 03:50:58;;;;;;;10.90;3.13;;;;;;;;;;5109917;28;20181;-40
2021/05/04 03:53:25;;;;;;;15.23;3.78;;;;;;;;;;5109866;28;20173;-40
2021/05/04 03:55:51;;;;;;;8.25;2.47;;;;;;;;;;5116919;28;20260;-40
2021/05/04 03:58:18;;;;;;;8.48;2.78;;;;;;;;;;5114056;28;20264;-40
2021/05/04 04:00:44;;;;;;;8.38;2.92;;;;;;;;;;5116897;28;20173;-40
2021/05/04 04:03:10;;;;;;;6.93;2.40;;;;;;;;;;5117556;28;20185;-41
2021/05/04 04:05:36;;;;;;;8.55;3.42;;;;;;;;;;5117233;28;20177;-40
2021/05/04 04:08:02;;;;;;;7.38;2.67;;;;;;;;;;5097866;28;20358;-40
2021/05/04 04:10:28;;;;;;;7.47;2.65;;;;;;;;;;5114053;28;20193;-40
2021/05/04 04:12:55;;;;;;;7.30;2.15;;;;;;;;;;5115377;28;20283;-40
2021/05/04 04:15:21;;;;;;;6.07;2.40;;;;;;;;;;5106329;28;20177;-41
2021/05/04 04:17:47;;;;;;;6.43;2.47;;;;;;;;;;5110952;28;20829;-40
2021/05/04 04:20:13;;;;;;;4.03;2.25;;;;;;;;;;5117111;28;20263;-41
2021/05/04 04:22:39;;;;;;;5.43;2.28;;;;;;;;;;5115130;28;20204;-40
2021/05/04 04:25:06;;;;;;;8.55;2.38;;;;;;;;;;5098191;28;20235;-40
2021/05/04 04:27:32;;;;;;;3.50;1.65;;;;;;;;;;5116804;28;20251;-40
2021/05/04 04:29:58;;;;;;;6.72;2.10;;;;;;;;;;5116891;28;20211;-40
2021/05/04 04:32:24;;;;;;;4.93;2.65;;;;;;;;;;5116674;28;20216;-41
2021/05/04 04:34:52;;;;;;;6.18;1.98;;;;;;;;;;5116495;28;20177;-40
2021/05/04 04:37:18;;;;;;;4.63;2.00;;;;;;;;;;5116661;28;20177;-40
2021/05/04 04:39:44;;;;;;;2.55;1.63;;;;;;;;;;5116819;28;20186;-41
2021/05/04 04:42:10;;;;;;;3.78;1.77;;;;;;;;;;5115425;28;20840;-40
2021/05/04 04:44:36;;;;;;;4.00;1.92;;;;;;;;;;5117016;28;20184;-40
2021/05/04 04:47:05;;;;;;;4.88;1.67;;;;;;;;;;5116972;28;20226;-41
2021/05/04 04:49:31;;;;;;;4.22;1.83;;;;;;;;;;5115548;28;20197;-41
2021/05/04 04:51:57;;;;;;;6.15;2.15;;;;;;;;;;5104596;28;20475;-40
2021/05/04 04:54:23;;;;;;;5.80;2.33;;;;;;;;;;5115179;28;20179;-41
2021/05/04 04:56:49;;;;;;;4.50;1.88;;;;;;;;;;5111192;28;20169;-40
2021/05/04 04:59:16;;;;;;;3.63;1.95;;;;;;;;;;5116461;28;20177;-40
2021/05/04 05:01:42;;;;;;;5.88;1.90;;;;;;;;;;5119210;27;20185;-40
2021/05/04 05:04:08;;;;;;;2.63;1.70;;;;;;;;;;5120818;27;20564;-41
2021/05/04 05:06:35;;;;;;;3.80;1.70;;;;;;;;;;5116280;28;20252;-40
2021/05/04 05:09:02;;;;;;;5.20;1.58;;;;;;;;;;5113444;28;21013;-40
2021/05/04 05:11:28;;;;;;;3.28;1.45;;;;;;;;;;5113983;28;20602;-41
2021/05/04 05:13:54;;;;;;;3.85;1.98;;;;;;;;;;5124238;27;20184;-41
2021/05/04 05:16:22;;;;;;;4.15;1.75;;;;;;;;;;5116382;28;20194;-40
2021/05/04 05:18:48;;;;;;;4.60;2.15;;;;;;;;;;5098451;28;20197;-41
2021/05/04 05:21:15;;;;;;;3.50;1.40;;;;;;;;;;5113839;28;20180;-41
2021/05/04 05:23:42;;;;;;;1.70;1.30;;;;;;;;;;5115709;28;20168;-40
2021/05/04 05:26:08;;;;;;;3.78;1.58;;;;;;;;;;5115517;28;20184;-41
2021/05/04 05:28:34;;;;;;;3.10;1.63;;;;;;;;;;5115361;28;20170;-41
2021/05/04 05:31:00;;;;;;;3.83;1.90;;;;;;;;;;5113259;28;20177;-40
2021/05/04 05:33:26;;;;;;;3.80;1.63;;;;;;;;;;5094628;28;20209;-40
2021/05/04 05:35:52;;;;;;;1.88;1.17;;;;;;;;;;5093189;28;20708;-41
2021/05/04 05:38:18;;;;;;;4.07;1.45;;;;;;;;;;5108135;28;20195;-40
2021/05/04 05:40:44;;;;;;;2.58;1.50;;;;;;;;;;5114671;28;20249;-41
2021/05/04 05:43:10;;;;;;;1.67;1.40;;;;;;;;;;5098419;28;20220;-40
2021/05/04 05:45:36;;;;;;;3.05;1.52;;;;;;;;;;5095433;28;20246;-40
2021/05/04 05:48:03;;;;;;;2.28;1.75;;;;;;;;;;5112721;28;20209;-40
2021/05/04 05:50:28;;;;;;;2.20;1.20;;;;;;;;;;5097407;28;20177;-40
2021/05/04 05:52:55;;;;;;;2.53;1.10;;;;;;;;;;5114614;28;20219;-40
2021/05/04 05:55:21;;;;;;;3.30;1.50;;;;;;;;;;5114451;28;20181;-40
2021/05/04 05:57:47;;;;;;;2.05;1.35;;;;;;;;;;5106630;28;20226;-41
2021/05/04 06:00:16;;;;;;;2.28;1.33;;;;;;;;;;5114812;28;20187;-41
2021/05/04 06:02:42;;;;;;;1.75;1.30;;;;;;;;;;5095870;28;20419;-41
2021/05/04 06:05:08;;;;;;;2.80;1.33;;;;;;;;;;5108638;28;20169;-41
2021/05/04 06:07:34;;;;;;;2.35;0.93;;;;;;;;;;5095199;28;20245;-41
2021/05/04 06:10:00;;;;;;;2.55;1.27;;;;;;;;;;5088135;28;20188;-41
2021/05/04 06:12:26;;;;;;;1.50;1.30;;;;;;;;;;5114559;28;20568;-41
2021/05/04 06:14:52;;;;;;;4.10;1.40;;;;;;;;;;5114813;28;20486;-41
2021/05/04 06:17:18;;;;;;;2.63;1.20;;;;;;;;;;5114723;28;20185;-41
2021/05/04 06:19:44;;;;;;;3.90;1.10;;;;;;;;;;5114648;28;20169;-41
2021/05/04 06:22:10;;;;;;;1.83;1.08;;;;;;;;;;5094141;28;20247;-41
2021/05/04 06:24:36;;;;;;;1.23;1.10;;;;;;;;;;5094833;28;20474;-41
2021/05/04 06:27:02;;;;;;;1.10;1.00;;;;;;;;;;5107973;28;20188;-41
2021/05/04 06:29:28;;;;;;;1.60;1.13;;;;;;;;;;5114892;28;20452;-41
2021/05/04 06:32:01;;;;;;;1.58;1.20;;;;;;;;;;5078980;28;20228;-41
2021/05/04 06:34:27;;;;;;;1.58;1.20;;;;;;;;;;5114576;28;20180;-41
2021/05/04 06:36:53;;;;;;;1.92;1.10;;;;;;;;;;5115135;28;20371;-40
2021/05/04 06:39:19;;;;;;;1.38;1.10;;;;;;;;;;5113487;28;20583;-41
2021/05/04 06:41:45;;;;;;;1.80;1.00;;;;;;;;;;5112375;28;20184;-41
2021/05/04 06:44:13;;;;;;;1.75;1.00;;;;;;;;;;5111450;28;20189;-41
2021/05/04 06:46:40;;;;;;;1.55;1.30;;;;;;;;;;5095671;28;20176;-41
2021/05/04 06:49:06;;;;;;;1.98;1.30;;;;;;;;;;5119132;28;20207;-41
2021/05/04 06:51:32;;;;;;;1.50;1.10;;;;;;;;;;5118161;28;20707;-41
2021/05/04 06:53:58;;;;;;;1.70;0.95;;;;;;;;;;5119131;28;20169;-41
2021/05/04 06:56:25;;;;;;;1.75;1.00;;;;;;;;;;5118491;28;20241;-40
2021/05/04 06:58:51;;;;;;;1.13;0.85;;;;;;;;;;5116940;28;20212;-40
2021/05/04 07:01:17;;;;;;;0.80;0.80;;;;;;;;;;5107571;28;20206;-40
2021/05/04 07:03:43;;;;;;;1.42;1.02;;;;;;;;;;5112886;28;20196;-41
2021/05/04 07:06:09;;;;;;;2.50;1.00;;;;;;;;;;5118823;28;20175;-41
2021/05/04 07:08:35;;;;;;;1.23;0.90;;;;;;;;;;5117750;28;20539;-40
2021/05/04 07:11:01;;;;;;;1.38;0.90;;;;;;;;;;5116301;28;20183;-40
2021/05/04 07:13:27;;;;;;;1.85;0.80;;;;;;;;;;5117692;28;20310;-40
2021/05/04 07:15:54;;;;;;;3.25;1.17;;;;;;;;;;5112066;28;20193;-40
2021/05/04 07:18:22;;;;;;;1.60;1.10;;;;;;;;;;5112542;28;20493;-40
2021/05/04 07:20:49;;;;;;;1.55;1.08;;;;;;;;;;5108501;28;20277;-41
2021/05/04 07:23:15;;;;;;;4.55;1.20;;;;;;;;;;5109791;28;20181;-40
2021/05/04 07:25:41;;;;;;;4.40;1.02;;;;;;;;;;5117953;28;20181;-41
2021/05/04 07:28:07;;;;;;;2.42;1.13;;;;;;;;;;5112487;28;20185;-41
2021/05/04 07:30:37;;;;;;;2.33;1.67;;;;;;;;;;5092183;28;20177;-41
2021/05/04 07:33:03;;;;;;;1.77;1.17;;;;;;;;;;5117760;28;20196;-41
2021/05/04 07:35:29;;;;;;;2.33;1.00;;;;;;;;;;5117274;28;20233;-40
2021/05/04 07:37:56;;;;;;;2.55;1.15;;;;;;;;;;5117024;28;20177;-41
2021/05/04 07:40:22;;;;;;;7.13;1.35;;;;;;;;;;5115946;28;20184;-40
2021/05/04 07:42:48;;;;;;;3.47;1.20;;;;;;;;;;5113070;28;20204;-40
2021/05/04 07:45:15;;;;;;;2.08;1.20;;;;;;;;;;5116998;28;20290;-41
2021/05/04 07:47:41;;;;;;;1.60;1.30;;;;;;;;;;5113501;28;20276;-41
2021/05/04 07:50:10;;;;;;;4.55;1.33;;;;;;;;;;5104371;28;20588;-41
2021/05/04 07:52:36;;;;;;;2.25;1.05;;;;;;;;;;5116097;28;20189;-41
2021/05/04 07:55:02;;;;;;;2.25;1.05;;;;;;;;;;5117423;28;20171;-41
2021/05/04 07:57:28;;;;;;;1.83;1.10;;;;;;;;;;5110916;28;20450;-40
2021/05/04 07:59:55;;;;;;;5.65;1.20;;;;;;;;;;5110313;28;20275;-41
2021/05/04 08:02:21;;;;;;;3.03;1.13;;;;;;;;;;5117319;28;20165;-41
2021/05/04 08:04:47;;;;;;;2.58;1.40;;;;;;;;;;5117877;28;20168;-41
2021/05/04 08:07:13;;;;;;;1.80;1.10;;;;;;;;;;5117596;28;20206;-40
2021/05/04 08:09:40;;;;;;;3.22;1.30;;;;;;;;;;5117456;28;20554;-41
2021/05/04 08:12:06;;;;;;;1.27;1.17;;;;;;;;;;5114514;28;20229;-41
2021/05/04 08:14:33;;;;;;;3.42;1.30;;;;;;;;;;5079605;28;20219;-42
2021/05/04 08:16:59;;;;;;;1.48;1.20;;;;;;;;;;5097554;28;20259;-41
2021/05/04 08:19:26;;;;;;;1.75;1.08;;;;;;;;;;5102897;28;20174;-41
2021/05/04 08:21:52;;;;;;;3.25;1.08;;;;;;;;;;5102960;28;20551;-40
2021/05/04 08:24:18;;;;;;;2.08;1.30;;;;;;;;;;5115071;28;20212;-40
2021/05/04 08:26:45;;;;;;;3.53;1.27;;;;;;;;;;5109335;28;20170;-40
2021/05/04 08:29:11;;;;;;;2.22;1.50;;;;;;;;;;5117316;28;20810;-41
2021/05/04 08:31:37;;;;;;;5.90;1.70;;;;;;;;;;5115660;28;20200;-41
2021/05/04 08:34:03;;;;;;;4.38;1.60;;;;;;;;;;5117007;28;20174;-41
2021/05/04 08:36:33;;;;;;;4.30;2.00;;;;;;;;;;5106001;28;20189;-41
2021/05/04 08:38:59;;;;;;;3.42;1.83;;;;;;;;;;5116286;28;20177;-41
2021/05/04 08:41:25;;;;;;;4.50;2.35;;;;;;;;;;5116695;28;20165;-41
2021/05/04 08:43:51;;;;;;;6.00;2.85;;;;;;;;;;5107019;28;20249;-41
2021/05/04 08:46:20;;;;;;;4.65;2.28;;;;;;;;;;5105588;28;20177;-41
2021/05/04 08:48:46;;;;;;;6.57;2.83;;;;;;;;;;5116960;28;20173;-41
2021/05/04 08:51:13;;;;;;;5.85;2.25;;;;;;;;;;5116135;28;20204;-41
2021/05/04 08:53:39;;;;;;;5.18;2.28;;;;;;;;;;5116192;28;20173;-41
2021/05/04 08:56:08;;;;;;;6.47;2.45;;;;;;;;;;5116261;28;20572;-41
2021/05/04 08:58:34;;;;;;;4.88;2.35;;;;;;;;;;5099912;28;20272;-41
2021/05/04 09:01:00;;;;;;;2.97;2.13;;;;;;;;;;5116185;28;20180;-41
2021/05/04 09:03:32;;;;;;;3.50;2.20;;;;;;;;;;5115425;28;20195;-40
2021/05/04 09:08:35;;;;;;;3.08;2.42;;;;;;;;;;5116326;28;20185;-40
2021/05/04 09:17:07;;;;;;;4.55;1.98;;;;;;;;;;5099693;28;20214;-40
2021/05/04 09:22:16;;;;;;;5.95;2.22;;;;;;;;;;5096618;28;20185;-41
2021/05/04 09:24:44;;;;;;;6.25;2.20;;;;;;;;;;5107240;28;20256;-40
2021/05/04 09:27:11;;;;;;;4.32;2.00;;;;;;;;;;5116216;28;20185;-41
2021/05/04 09:29:41;;;;;;;4.75;1.88;;;;;;;;;;5112420;28;20245;-40
2021/05/04 09:32:09;;;;;;;3.50;2.00;;;;;;;;;;5095152;28;20225;-41
2021/05/04 09:34:45;;;;;;;3.45;2.10;;;;;;;;;;5105731;28;20165;-41
2021/05/04 09:37:24;;;;;;;3.20;1.83;;;;;;;;;;5115646;28;20173;-41
2021/05/04 09:39:50;;;;;;;5.35;1.60;;;;;;;;;;5115823;28;20177;-41
2021/05/04 09:42:17;;;;;;;4.75;2.10;;;;;;;;;;5115498;28;20165;-41
2021/05/04 09:44:47;;;;;;;3.28;1.88;;;;;;;;;;5104647;28;20174;-41
2021/05/04 09:47:18;;;;;;;5.68;2.15;;;;;;;;;;5095757;28;20429;-41
2021/05/04 09:49:44;;;;;;;3.83;1.70;;;;;;;;;;5099613;28;20168;-41
2021/05/04 09:55:09;;;;;;;9.77;2.25;;;;;;;;;;5114888;28;20177;-41
2021/05/04 09:57:37;;;;;;;5.43;1.92;;;;;;;;;;5095229;28;20256;-41
2021/05/04 10:00:08;;;;;;;3.50;1.60;;;;;;;;;;5094948;28;20166;-41
2021/05/04 10:02:34;;;;;;;3.85;1.90;;;;;;;;;;5076972;28;20178;-41
2021/05/04 10:05:01;;;;;;;3.75;1.83;;;;;;;;;;5097209;28;20176;-41
2021/05/04 10:07:28;;;;;;;4.20;1.40;;;;;;;;;;5085664;28;20509;-41
2021/05/04 10:09:54;;;;;;;5.90;1.65;;;;;;;;;;5102822;28;20215;-41
2021/05/04 10:12:20;;;;;;;3.58;1.52;;;;;;;;;;5094395;28;20197;-40
2021/05/04 10:14:48;;;;;;;4.25;1.63;;;;;;;;;;5105657;28;20180;-41
2021/05/04 10:17:19;;;;;;;4.05;1.73;;;;;;;;;;5114811;28;20193;-41
2021/05/04 10:19:46;;;;;;;5.07;1.98;;;;;;;;;;5114976;28;20237;-40
2021/05/04 10:22:13;;;;;;;2.78;1.50;;;;;;;;;;5114721;28;20212;-41
2021/05/04 10:24:40;;;;;;;3.83;1.63;;;;;;;;;;5113867;28;20576;-41
2021/05/04 10:27:07;;;;;;;3.58;1.40;;;;;;;;;;5114850;28;20206;-40
2021/05/04 10:29:33;;;;;;;3.85;1.50;;;;;;;;;;5115333;28;20177;-41
2021/05/04 10:31:59;;;;;;;2.35;1.45;;;;;;;;;;5114212;28;20208;-41
2021/05/04 10:34:31;;;;;;;2.40;1.40;;;;;;;;;;5114211;28;20322;-41
2021/05/04 10:37:00;;;;;;;5.57;1.60;;;;;;;;;;5105396;28;20553;-41
2021/05/04 10:39:33;;;;;;;4.20;1.48;;;;;;;;;;5115199;28;20572;-41
2021/05/04 10:42:00;;;;;;;5.03;1.48;;;;;;;;;;5114005;28;20188;-41
2021/05/04 10:44:26;;;;;;;2.20;1.20;;;;;;;;;;5115099;28;20168;-41
2021/05/04 10:46:52;;;;;;;5.40;1.30;;;;;;;;;;5114153;28;20842;-41
2021/05/04 10:49:19;;;;;;;4.32;1.52;;;;;;;;;;5105425;28;20201;-41
2021/05/04 10:51:46;;;;;;;3.67;1.45;;;;;;;;;;5112892;28;20772;-41
2021/05/04 10:54:14;;;;;;;2.13;1.40;;;;;;;;;;5113536;28;20717;-41
2021/05/04 10:56:41;;;;;;;3.20;1.50;;;;;;;;;;5114239;28;20258;-40
2021/05/04 10:59:08;;;;;;;3.22;1.40;;;;;;;;;;5114505;28;20302;-40
2021/05/04 11:01:35;;;;;;;5.15;1.52;;;;;;;;;;5108029;28;20209;-41
2021/05/04 11:04:02;;;;;;;4.22;1.42;;;;;;;;;;5111714;28;20443;-41
2021/05/04 11:06:29;;;;;;;1.33;1.15;;;;;;;;;;5097339;28;20234;-40
2021/05/04 11:08:57;;;;;;;2.78;1.38;;;;;;;;;;5113507;28;20161;-40
2021/05/04 11:11:36;;;;;;;2.08;1.42;;;;;;;;;;5095684;28;20181;-40
2021/05/04 11:14:05;;;;;;;1.52;1.00;;;;;;;;;;5109247;28;20180;-41
2021/05/04 11:16:36;;;;;;;3.08;1.27;;;;;;;;;;5114755;28;20596;-41
2021/05/04 11:19:09;;;;;;;1.40;1.30;;;;;;;;;;5114482;28;20597;-41
2021/05/04 11:21:56;;;;;;;2.80;1.35;;;;;;;;;;5103693;28;20492;-40
2021/05/04 11:24:25;;;;;;;3.03;1.10;;;;;;;;;;5113199;28;20452;-41
2021/05/04 11:26:53;;;;;;;1.55;1.30;;;;;;;;;;5114290;28;20532;-41
2021/05/04 11:29:32;;;;;;;1.30;1.20;;;;;;;;;;5117623;28;20181;-41
2021/05/04 11:32:11;;;;;;;1.38;1.20;;;;;;;;;;5117589;28;20193;-40
2021/05/04 11:34:37;;;;;;;2.55;1.27;;;;;;;;;;5117560;28;20525;-40
2021/05/04 11:37:05;;;;;;;2.38;1.08;;;;;;;;;;5118003;28;20203;-41
2021/05/04 11:39:31;;;;;;;1.58;1.10;;;;;;;;;;5117110;28;20173;-40
2021/05/04 11:41:58;;;;;;;3.00;0.85;;;;;;;;;;5117709;28;20448;-41
2021/05/04 11:44:25;;;;;;;1.83;1.02;;;;;;;;;;5116365;28;20185;-41
2021/05/04 11:46:51;;;;;;;1.38;1.20;;;;;;;;;;5117090;28;20177;-41
2021/05/04 11:49:28;;;;;;;1.63;1.40;;;;;;;;;;5098673;28;20475;-41
2021/05/04 11:52:05;;;;;;;2.00;0.85;;;;;;;;;;5096865;28;20196;-41
2021/05/04 11:54:31;;;;;;;3.05;1.10;;;;;;;;;;5097500;28;20161;-40
2021/05/04 11:56:58;;;;;;;2.38;1.08;;;;;;;;;;5097414;28;20172;-41
2021/05/04 11:59:26;;;;;;;1.80;1.10;;;;;;;;;;5110584;28;20192;-41
2021/05/04 12:01:52;;;;;;;1.15;1.10;;;;;;;;;;5103227;28;20260;-40
2021/05/04 12:04:18;;;;;;;2.72;1.20;;;;;;;;;;5116560;28;20169;-41
2021/05/04 12:06:48;;;;;;;2.95;1.40;;;;;;;;;;5105120;28;20277;-41
2021/05/04 12:09:16;;;;;;;1.25;1.00;;;;;;;;;;5108341;28;20177;-40
2021/05/04 12:11:43;;;;;;;1.55;1.02;;;;;;;;;;5117053;28;20273;-41
2021/05/04 12:14:09;;;;;;;1.10;0.95;;;;;;;;;;5117515;28;20252;-41
2021/05/04 12:16:35;;;;;;;1.30;1.20;;;;;;;;;;5116318;28;20215;-41
2021/05/04 12:19:01;;;;;;;1.20;1.10;;;;;;;;;;5116876;28;20177;-41
2021/05/04 12:21:28;;;;;;;6.75;1.08;;;;;;;;;;5111651;28;20209;-42
2021/05/04 12:23:54;;;;;;;2.35;0.98;;;;;;;;;;5096736;28;20166;-41
2021/05/04 12:26:21;;;;;;;2.08;1.35;;;;;;;;;;5113134;28;20169;-41
2021/05/04 12:28:53;;;;;;;2.22;0.93;;;;;;;;;;5115408;28;20205;-41
2021/05/04 12:31:28;;;;;;;1.48;1.00;;;;;;;;;;5116152;28;20169;-41
2021/05/04 12:33:56;;;;;;;3.60;1.08;;;;;;;;;;5116288;28;20175;-41
2021/05/04 12:36:35;;;;;;;0.80;0.80;;;;;;;;;;5116405;28;20173;-41
2021/05/04 12:39:06;;;;;;;1.50;0.90;;;;;;;;;;5113511;28;20528;-41
2021/05/04 12:41:33;;;;;;;1.60;1.10;;;;;;;;;;5116254;28;20609;-41
2021/05/04 12:44:11;;;;;;;0.93;0.90;;;;;;;;;;5107996;28;20181;-41
2021/05/04 12:46:44;;;;;;;0.82;0.82;;;;;;;;;;5111698;28;20175;-41
2021/05/04 12:49:11;;;;;;;2.33;0.85;;;;;;;;;;5105774;28;20193;-41
2021/05/04 12:51:39;;;;;;;1.80;1.50;;;;;;;;;;5115858;28;20197;-41
2021/05/04 12:54:11;;;;;;;0.85;0.80;;;;;;;;;;5115613;28;20169;-41
2021/05/04 12:56:38;;;;;;;1.70;0.90;;;;;;;;;;5116293;28;20170;-41
2021/05/04 12:59:05;;;;;;;4.40;0.82;;;;;;;;;;5115972;28;20173;-40
2021/05/04 13:01:31;;;;;;;1.48;1.13;;;;;;;;;;5115489;28;20185;-40
2021/05/04 13:03:59;;;;;;;0.95;0.80;;;;;;;;;;5115867;28;20180;-40
2021/05/04 13:06:30;;;;;;;2.13;1.08;;;;;;;;;;5098365;28;20242;-40
2021/05/04 13:11:45;;;;;;;1.30;1.13;;;;;;;;;;5115216;28;20181;-40
2021/05/04 13:14:38;;;;;;;1.95;0.77;;;;;;;;;;5099716;28;20170;-41
2021/05/04 13:28:29;;;;;;;1.00;0.88;;;;;;;;;;5114174;28;20195;-40
2021/05/04 13:30:57;;;;;;;1.42;1.08;;;;;;;;;;5114291;28;20222;-41
2021/05/04 13:33:23;;;;;;;0.70;0.70;;;;;;;;;;5112752;28;20204;-41
2021/05/04 13:35:57;;;;;;;1.63;0.80;;;;;;;;;;5102836;28;20199;-41
2021/05/04 13:38:44;;;;;;;1.20;0.88;;;;;;;;;;5105948;28;20173;-40
2021/05/04 13:49:24;;;;;;;3.60;0.80;;;;;;;;;;5113153;28;20234;-41
2021/05/04 13:51:50;;;;;;;0.93;0.75;;;;;;;;;;5114779;28;20196;-41
2021/05/04 13:54:17;;;;;;;0.68;0.68;;;;;;;;;;5115366;28;20180;-41
2021/05/04 13:56:43;;;;;;;3.85;0.77;;;;;;;;;;5115665;28;20161;-41
2021/05/04 13:59:09;;;;;;;0.70;0.70;;;;;;;;;;5114399;28;20177;-41
2021/05/04 14:01:41;;;;;;;1.02;0.90;;;;;;;;;;5114247;28;20185;-41
2021/05/04 14:07:14;;;;;;;2.42;0.90;;;;;;;;;;5097892;28;20572;-41
2021/05/04 14:26:27;;;;;;;0.68;0.68;;;;;;;;;;5033461;28;20286;-40
2021/05/04 14:28:53;;;;;;;0.60;0.57;;;;;;;;;;5088961;28;20234;-41
2021/05/04 14:31:19;;;;;;;0.85;0.60;;;;;;;;;;5114713;28;20173;-41
2021/05/04 14:33:45;;;;;;;0.60;0.50;;;;;;;;;;5114035;28;20181;-41
2021/05/04 14:44:58;;;;;;;0.50;0.50;;;;;;;;;;5114521;28;20544;-41
2021/05/04 15:03:20;;;;;;;0.50;0.50;;;;;;;;;;5118846;28;20185;-41
2021/05/04 15:05:46;;;;;;;1.95;0.70;;;;;;;;;;5119051;28;20177;-41
2021/05/04 15:08:13;;;;;;;0.60;0.60;;;;;;;;;;5106740;28;20182;-41
2021/05/04 15:10:40;;;;;;;0.90;0.73;;;;;;;;;;5098079;28;20154;-41
2021/05/04 15:13:08;;;;;;;0.88;0.73;;;;;;;;;;5108530;28;20228;-41
2021/05/04 15:20:41;;;;;;;2.58;0.98;;;;;;;;;;5113882;28;20890;-41
2021/05/04 15:23:43;;;;;;;1.92;1.00;;;;;;;;;;5118660;28;20238;-41
2021/05/04 15:26:09;;;;;;;2.95;1.20;;;;;;;;;;5113302;28;20190;-41
2021/05/04 15:28:35;;;;;;;3.70;1.50;;;;;;;;;;5104940;28;20189;-41
2021/05/04 15:31:01;;;;;;;3.22;1.23;;;;;;;;;;5117219;28;20188;-41
2021/05/04 15:33:31;;;;;;;1.20;1.10;;;;;;;;;;5117467;28;20188;-41
2021/05/04 15:35:57;;;;;;;2.20;1.27;;;;;;;;;;5118094;28;20169;-41
2021/05/04 15:38:23;;;;;;;1.60;1.50;;;;;;;;;;5112691;28;20169;-40
2021/05/04 15:40:49;;;;;;;10.15;2.47;;;;;;;;;;5117018;28;20561;-41
2021/05/04 15:43:15;;;;;;;4.15;2.33;;;;;;;;;;5117025;28;20245;-41
2021/05/04 15:45:56;;;;;;;2.30;2.05;;;;;;;;;;5114725;28;20195;-41
2021/05/04 15:48:34;;;;;;;6.57;2.20;;;;;;;;;;5110727;28;20194;-41
2021/05/04 15:51:18;;;;;;;6.10;2.85;;;;;;;;;;5111363;28;20185;-41
2021/05/04 16:06:58;;;;;;;3.97;1.95;;;;;;;;;;5110636;28;20789;-41
2021/05/04 16:09:28;;;;;;;3.50;1.67;;;;;;;;;;5110813;28;20268;-41
2021/05/04 16:11:54;;;;;;;4.45;1.40;;;;;;;;;;5112273;28;20223;-40
2021/05/04 16:14:21;;;;;;;3.53;1.50;;;;;;;;;;5112781;28;20177;-40
2021/05/04 16:16:48;;;;;;;5.18;1.70;;;;;;;;;;5112987;28;20238;-40
2021/05/04 16:19:18;;;;;;;4.70;1.30;;;;;;;;;;5112663;28;20187;-41
2021/05/04 16:21:46;;;;;;;3.05;1.48;;;;;;;;;;5110095;28;20249;-40
2021/05/04 16:27:09;;;;;;;3.00;1.73;;;;;;;;;;5115396;28;20185;-41